Time;durP1;ratioP1;P1;durP2;ratioP2;P2;SDS_P1;SDS_P2;PMS_P1;PMS_P2;Temp;Humidity;BMP_temperature;BMP_pressure;BME280_temperature;BME280_humidity;BME280_pressure;Samples;Min_cycle;Max_cycle;Signal;HPM_P1;HPM_P2
2021/08/15 00:00:33;;;;;;;10.77;8.97;;;;;;;;;;5052979;28;20421;-72
2021/08/15 00:06:03;;;;;;;13.03;8.10;;;;;;;;;;5052585;28;20410;-72
2021/08/15 00:08:29;;;;;;;9.20;8.40;;;;;;;;;;5052684;28;20411;-71
2021/08/15 00:10:56;;;;;;;9.90;8.03;;;;;;;;;;5054557;28;21013;-72
2021/08/15 00:13:22;;;;;;;8.70;8.00;;;;;;;;;;5056403;28;20465;-72
2021/08/15 00:15:48;;;;;;;9.20;8.40;;;;;;;;;;5056396;28;20446;-71
2021/08/15 00:18:14;;;;;;;15.17;9.17;;;;;;;;;;5056636;28;20886;-71
2021/08/15 00:20:40;;;;;;;9.40;8.50;;;;;;;;;;5056437;28;20407;-73
2021/08/15 00:23:06;;;;;;;11.73;9.17;;;;;;;;;;5056325;28;20406;-72
2021/08/15 00:25:32;;;;;;;13.77;9.80;;;;;;;;;;5056210;28;20874;-72
2021/08/15 00:27:58;;;;;;;10.47;9.57;;;;;;;;;;5056154;28;20438;-72
2021/08/15 00:30:24;;;;;;;9.70;8.70;;;;;;;;;;5056019;28;20493;-72
2021/08/15 00:35:54;;;;;;;10.10;8.80;;;;;;;;;;5055783;28;21034;-72
2021/08/15 00:38:20;;;;;;;9.30;8.50;;;;;;;;;;5055963;28;20407;-72
2021/08/15 00:40:46;;;;;;;10.87;9.50;;;;;;;;;;5055791;28;20413;-72
2021/08/15 00:43:11;;;;;;;10.10;9.10;;;;;;;;;;5055952;28;20407;-72
2021/08/15 00:45:37;;;;;;;10.40;9.40;;;;;;;;;;5055893;28;20808;-72
2021/08/15 00:51:07;;;;;;;12.87;9.63;;;;;;;;;;5055600;28;20469;-72
2021/08/15 00:53:35;;;;;;;16.50;10.67;;;;;;;;;;5055815;28;20755;-72
2021/08/15 00:56:03;;;;;;;11.50;9.60;;;;;;;;;;5055608;28;20445;-72
2021/08/15 00:58:31;;;;;;;12.80;9.90;;;;;;;;;;5055665;28;20913;-73
2021/08/15 01:06:48;;;;;;;12.90;9.63;;;;;;;;;;5052679;28;20909;-73
2021/08/15 01:09:14;;;;;;;11.20;10.03;;;;;;;;;;5054989;28;20490;-72
2021/08/15 01:11:40;;;;;;;11.50;9.27;;;;;;;;;;5055252;28;20485;-73
2021/08/15 01:14:07;;;;;;;10.80;9.67;;;;;;;;;;5055559;28;20762;-72
2021/08/15 01:16:36;;;;;;;10.43;9.43;;;;;;;;;;5055114;28;20411;-73
2021/08/15 01:19:02;;;;;;;10.43;9.33;;;;;;;;;;5055018;28;20800;-72
2021/08/15 01:21:28;;;;;;;9.83;8.83;;;;;;;;;;5055024;28;20427;-72
2021/08/15 01:23:54;;;;;;;12.50;9.67;;;;;;;;;;5055273;28;20877;-72
2021/08/15 01:26:21;;;;;;;9.40;8.50;;;;;;;;;;5055202;28;20450;-72
2021/08/15 01:28:48;;;;;;;10.03;8.70;;;;;;;;;;5055398;28;20432;-72
2021/08/15 01:37:03;;;;;;;10.73;8.87;;;;;;;;;;5055029;28;20429;-72
2021/08/15 01:39:29;;;;;;;9.30;7.60;;;;;;;;;;5054981;28;20449;-72
2021/08/15 01:41:55;;;;;;;10.40;9.40;;;;;;;;;;5054747;28;20772;-72
2021/08/15 01:44:21;;;;;;;9.63;8.83;;;;;;;;;;5054983;28;20501;-72
2021/08/15 01:46:47;;;;;;;11.43;10.53;;;;;;;;;;5054763;28;20403;-72
2021/08/15 01:49:13;;;;;;;11.10;10.20;;;;;;;;;;5054931;28;20793;-72
2021/08/15 01:51:39;;;;;;;10.53;9.63;;;;;;;;;;5054698;28;20430;-72
2021/08/15 01:54:05;;;;;;;12.30;10.90;;;;;;;;;;5054657;28;20885;-72
2021/08/15 01:56:31;;;;;;;11.30;10.20;;;;;;;;;;5054394;28;20438;-71
2021/08/15 01:58:57;;;;;;;13.10;11.20;;;;;;;;;;5054531;28;20415;-71
2021/08/15 02:01:24;;;;;;;14.43;11.70;;;;;;;;;;5054479;28;20501;-72
2021/08/15 02:06:53;;;;;;;11.43;9.70;;;;;;;;;;5054301;28;20448;-71
2021/08/15 02:09:19;;;;;;;12.63;10.10;;;;;;;;;;5054333;28;20845;-72
2021/08/15 02:11:45;;;;;;;11.47;9.70;;;;;;;;;;5054024;28;20419;-71
2021/08/15 02:14:11;;;;;;;11.73;8.90;;;;;;;;;;5054642;28;20533;-72
2021/08/15 02:16:37;;;;;;;12.00;9.50;;;;;;;;;;5054067;28;20751;-72
2021/08/15 02:19:03;;;;;;;10.10;9.20;;;;;;;;;;5052736;28;20446;-72
2021/08/15 02:21:29;;;;;;;11.00;9.90;;;;;;;;;;5053991;28;20412;-72
2021/08/15 02:23:55;;;;;;;11.80;9.60;;;;;;;;;;5054013;28;20407;-72
2021/08/15 02:26:22;;;;;;;12.93;10.27;;;;;;;;;;5053968;28;20476;-72
2021/08/15 02:28:48;;;;;;;12.47;10.70;;;;;;;;;;5054228;28;20407;-72
2021/08/15 02:31:14;;;;;;;12.57;11.23;;;;;;;;;;5054000;28;20485;-72
2021/08/15 02:36:43;;;;;;;11.67;10.57;;;;;;;;;;5053500;28;20516;-73
2021/08/15 02:39:09;;;;;;;10.90;9.80;;;;;;;;;;5053691;28;20832;-71
2021/08/15 02:41:35;;;;;;;14.80;11.40;;;;;;;;;;5053353;28;20407;-72
2021/08/15 02:44:01;;;;;;;13.07;11.83;;;;;;;;;;5053665;28;20920;-71
2021/08/15 02:46:27;;;;;;;14.20;11.87;;;;;;;;;;5053472;28;20540;-72
2021/08/15 02:51:56;;;;;;;12.10;10.27;;;;;;;;;;5053495;28;20433;-72
2021/08/15 02:54:22;;;;;;;12.53;10.40;;;;;;;;;;5053444;28;20825;-72
2021/08/15 02:56:48;;;;;;;14.37;11.43;;;;;;;;;;5053327;28;20431;-73
2021/08/15 02:59:14;;;;;;;13.23;10.30;;;;;;;;;;5053495;28;20419;-72
2021/08/15 03:01:40;;;;;;;13.03;11.40;;;;;;;;;;5053400;28;20416;-71
2021/08/15 03:07:10;;;;;;;20.50;13.10;;;;;;;;;;5053258;28;20406;-72
2021/08/15 03:09:36;;;;;;;14.73;11.40;;;;;;;;;;5053243;28;20446;-72
2021/08/15 03:12:03;;;;;;;11.40;10.40;;;;;;;;;;5053089;28;20411;-72
2021/08/15 03:14:29;;;;;;;11.70;10.60;;;;;;;;;;5053337;28;20403;-71
2021/08/15 03:16:55;;;;;;;15.20;11.40;;;;;;;;;;5053131;28;20419;-73
2021/08/15 03:19:21;;;;;;;13.00;11.63;;;;;;;;;;5052683;28;20412;-71
2021/08/15 03:21:47;;;;;;;12.57;11.27;;;;;;;;;;5053353;28;20415;-73
2021/08/15 03:24:13;;;;;;;12.67;11.30;;;;;;;;;;5053425;28;20418;-72
2021/08/15 03:26:43;;;;;;;12.30;11.10;;;;;;;;;;5053094;28;20913;-72
2021/08/15 03:29:09;;;;;;;12.73;10.23;;;;;;;;;;5051679;28;20528;-71
2021/08/15 03:31:35;;;;;;;12.40;11.10;;;;;;;;;;5053028;28;20447;-71
2021/08/15 03:37:04;;;;;;;12.23;10.93;;;;;;;;;;5052964;28;20430;-71
2021/08/15 03:39:31;;;;;;;13.17;11.77;;;;;;;;;;5053227;28;20427;-72
2021/08/15 03:41:58;;;;;;;11.70;10.03;;;;;;;;;;5053047;28;20441;-72
2021/08/15 03:44:25;;;;;;;12.30;11.20;;;;;;;;;;5054279;28;20893;-73
2021/08/15 03:46:51;;;;;;;15.03;10.83;;;;;;;;;;5055736;28;20438;-72
2021/08/15 03:52:20;;;;;;;12.73;10.83;;;;;;;;;;5056925;28;20414;-72
2021/08/15 03:54:46;;;;;;;12.53;10.60;;;;;;;;;;5057203;28;20419;-72
2021/08/15 03:57:12;;;;;;;12.40;11.20;;;;;;;;;;5055521;28;20418;-73
2021/08/15 03:59:38;;;;;;;11.73;10.50;;;;;;;;;;5056971;28;20411;-72
2021/08/15 04:02:04;;;;;;;12.23;10.80;;;;;;;;;;5056804;28;20497;-71
2021/08/15 04:07:34;;;;;;;14.00;10.50;;;;;;;;;;5056717;28;20473;-71
2021/08/15 04:10:02;;;;;;;13.20;11.40;;;;;;;;;;5056539;28;20446;-71
2021/08/15 04:12:28;;;;;;;12.17;10.40;;;;;;;;;;5056508;28;20426;-73
2021/08/15 04:14:54;;;;;;;13.00;11.70;;;;;;;;;;5056592;28;20403;-71
2021/08/15 04:17:20;;;;;;;13.90;12.27;;;;;;;;;;5056511;28;20442;-72
2021/08/15 04:19:46;;;;;;;13.57;12.27;;;;;;;;;;5056568;28;20420;-73
2021/08/15 04:22:12;;;;;;;14.67;12.63;;;;;;;;;;5056424;28;20451;-73
2021/08/15 04:24:38;;;;;;;15.53;14.20;;;;;;;;;;5056554;28;20421;-71
2021/08/15 04:27:04;;;;;;;14.47;12.97;;;;;;;;;;5056231;28;20468;-71
2021/08/15 04:29:30;;;;;;;15.60;13.93;;;;;;;;;;5056455;28;20521;-72
2021/08/15 04:31:56;;;;;;;17.67;14.73;;;;;;;;;;5056241;28;20419;-72
2021/08/15 04:37:26;;;;;;;14.67;12.83;;;;;;;;;;5056119;28;20480;-72
2021/08/15 04:39:53;;;;;;;17.97;13.97;;;;;;;;;;5056461;28;20426;-73
2021/08/15 04:42:19;;;;;;;14.27;12.77;;;;;;;;;;5056107;28;20473;-72
2021/08/15 04:44:45;;;;;;;15.80;13.97;;;;;;;;;;5055995;28;20414;-73
2021/08/15 04:47:11;;;;;;;15.03;13.53;;;;;;;;;;5055905;28;20438;-73
2021/08/15 04:52:40;;;;;;;16.00;14.40;;;;;;;;;;5055561;28;20434;-72
2021/08/15 04:55:06;;;;;;;15.27;13.70;;;;;;;;;;5055549;28;20415;-72
2021/08/15 04:57:32;;;;;;;14.90;13.50;;;;;;;;;;5055026;28;20406;-73
2021/08/15 04:59:58;;;;;;;14.07;12.67;;;;;;;;;;5055673;28;20461;-72
2021/08/15 05:02:24;;;;;;;15.20;13.60;;;;;;;;;;5055642;28;20424;-72
2021/08/15 05:07:53;;;;;;;16.27;14.70;;;;;;;;;;5055526;28;20433;-72
2021/08/15 05:10:19;;;;;;;15.53;13.93;;;;;;;;;;5055331;28;20474;-73
2021/08/15 05:12:46;;;;;;;14.77;12.50;;;;;;;;;;5055374;28;20450;-72
2021/08/15 05:15:12;;;;;;;16.80;11.70;;;;;;;;;;5055779;28;20419;-72
2021/08/15 05:23:26;;;;;;;13.37;11.97;;;;;;;;;;5055348;28;20414;-71
2021/08/15 05:25:52;;;;;;;14.00;11.70;;;;;;;;;;5054940;28;20419;-73
2021/08/15 05:28:18;;;;;;;13.13;11.83;;;;;;;;;;5055133;28;20940;-72
2021/08/15 05:30:44;;;;;;;13.13;11.90;;;;;;;;;;5055099;28;20463;-73
2021/08/15 05:33:10;;;;;;;13.33;11.30;;;;;;;;;;5055072;28;20776;-73
2021/08/15 05:35:36;;;;;;;13.73;11.90;;;;;;;;;;5055188;28;20573;-71
2021/08/15 05:38:02;;;;;;;12.90;11.70;;;;;;;;;;5055240;28;20772;-71
2021/08/15 05:40:28;;;;;;;12.37;10.60;;;;;;;;;;5054836;28;20450;-72
2021/08/15 05:42:54;;;;;;;11.17;10.17;;;;;;;;;;5055127;28;20497;-71
2021/08/15 05:45:20;;;;;;;12.47;11.23;;;;;;;;;;5054865;28;20439;-71
2021/08/15 05:47:46;;;;;;;11.20;10.20;;;;;;;;;;5054750;28;20447;-72
2021/08/15 05:53:15;;;;;;;11.07;10.07;;;;;;;;;;5054627;28;20472;-71
2021/08/15 05:55:41;;;;;;;11.57;10.47;;;;;;;;;;5054429;28;20403;-71
2021/08/15 05:58:07;;;;;;;12.07;10.87;;;;;;;;;;5054738;28;20443;-72
2021/08/15 06:00:33;;;;;;;12.50;11.20;;;;;;;;;;5054535;28;20493;-72
2021/08/15 06:02:59;;;;;;;11.37;10.17;;;;;;;;;;5054460;28;20502;-72
2021/08/15 06:05:25;;;;;;;11.50;10.40;;;;;;;;;;5054365;28;20511;-71
2021/08/15 06:07:51;;;;;;;11.27;10.13;;;;;;;;;;5052958;28;20445;-72
2021/08/15 06:10:17;;;;;;;12.73;10.80;;;;;;;;;;5054170;28;20553;-71
2021/08/15 06:12:43;;;;;;;11.47;10.37;;;;;;;;;;5054110;28;20770;-72
2021/08/15 06:15:12;;;;;;;11.43;10.40;;;;;;;;;;5054130;28;20433;-71
2021/08/15 06:17:39;;;;;;;11.37;10.17;;;;;;;;;;5054028;28;20940;-72
2021/08/15 06:23:08;;;;;;;13.47;10.40;;;;;;;;;;5053858;28;20916;-72
2021/08/15 06:25:34;;;;;;;12.27;9.63;;;;;;;;;;5053890;28;20415;-71
2021/08/15 06:28:00;;;;;;;11.23;9.67;;;;;;;;;;5053900;28;20746;-72
2021/08/15 06:30:27;;;;;;;13.47;10.23;;;;;;;;;;5053805;28;20569;-71
2021/08/15 06:32:54;;;;;;;11.00;9.10;;;;;;;;;;5053777;28;20415;-72
2021/08/15 06:38:23;;;;;;;12.40;10.40;;;;;;;;;;5053640;28;20777;-71
2021/08/15 06:40:49;;;;;;;12.70;9.73;;;;;;;;;;5052187;28;20431;-71
2021/08/15 06:43:15;;;;;;;11.60;10.50;;;;;;;;;;5053767;28;20435;-72
2021/08/15 06:45:41;;;;;;;12.23;11.13;;;;;;;;;;5053758;28;20460;-72
2021/08/15 06:48:08;;;;;;;11.60;10.50;;;;;;;;;;5053681;28;20502;-72
2021/08/15 06:53:38;;;;;;;14.70;10.80;;;;;;;;;;5053342;28;20434;-72
2021/08/15 06:56:06;;;;;;;14.27;10.70;;;;;;;;;;5053063;28;20415;-72
2021/08/15 06:58:32;;;;;;;10.63;9.70;;;;;;;;;;5053561;28;20419;-71
2021/08/15 07:00:58;;;;;;;10.80;9.90;;;;;;;;;;5053068;28;20418;-72
2021/08/15 07:03:24;;;;;;;10.27;9.07;;;;;;;;;;5052893;28;20407;-71
2021/08/15 07:05:50;;;;;;;10.33;9.53;;;;;;;;;;5052840;28;20414;-71
2021/08/15 07:08:16;;;;;;;10.70;9.63;;;;;;;;;;5052970;28;20426;-72
2021/08/15 07:10:43;;;;;;;10.60;8.90;;;;;;;;;;5052720;28;21039;-72
2021/08/15 07:13:09;;;;;;;11.77;10.57;;;;;;;;;;5051416;28;20419;-72
2021/08/15 07:15:35;;;;;;;10.70;9.60;;;;;;;;;;5052783;28;20870;-72
2021/08/15 07:18:01;;;;;;;9.87;9.07;;;;;;;;;;5052767;28;20765;-71
2021/08/15 07:23:31;;;;;;;13.87;11.33;;;;;;;;;;5052840;28;20409;-72
2021/08/15 07:25:57;;;;;;;13.23;12.07;;;;;;;;;;5052769;28;20453;-72
2021/08/15 07:28:23;;;;;;;13.90;12.20;;;;;;;;;;5052545;28;20415;-72
2021/08/15 07:30:49;;;;;;;15.67;11.47;;;;;;;;;;5052561;28;20497;-71
2021/08/15 07:33:15;;;;;;;11.83;10.73;;;;;;;;;;5052596;28;20441;-72
2021/08/15 07:38:46;;;;;;;12.93;11.63;;;;;;;;;;5052548;28;20928;-72
2021/08/15 07:41:12;;;;;;;13.20;11.90;;;;;;;;;;5052202;28;20411;-71
2021/08/15 07:43:38;;;;;;;13.50;12.20;;;;;;;;;;5052482;28;20474;-71
2021/08/15 07:46:04;;;;;;;12.90;11.70;;;;;;;;;;5052470;28;20438;-71
2021/08/15 07:48:30;;;;;;;12.50;11.40;;;;;;;;;;5051107;28;20785;-71
2021/08/15 07:53:59;;;;;;;11.90;10.90;;;;;;;;;;5052327;28;20781;-72
2021/08/15 07:56:25;;;;;;;15.13;12.47;;;;;;;;;;5052156;28;20464;-72
2021/08/15 07:58:51;;;;;;;12.27;11.27;;;;;;;;;;5050910;28;20431;-71
2021/08/15 08:01:18;;;;;;;13.90;11.50;;;;;;;;;;5052324;28;20411;-70
2021/08/15 08:03:44;;;;;;;14.87;12.33;;;;;;;;;;5052705;28;20759;-70
2021/08/15 08:09:13;;;;;;;12.00;10.80;;;;;;;;;;5052589;28;20430;-72
2021/08/15 08:11:39;;;;;;;14.60;13.00;;;;;;;;;;5052674;28;20439;-72
2021/08/15 08:14:05;;;;;;;13.57;12.30;;;;;;;;;;5052641;28;20494;-73
2021/08/15 08:16:31;;;;;;;12.90;11.70;;;;;;;;;;5052775;28;20558;-72
2021/08/15 08:18:57;;;;;;;12.47;11.17;;;;;;;;;;5052453;28;20438;-72
2021/08/15 08:21:23;;;;;;;11.73;10.60;;;;;;;;;;5052500;28;20411;-72
2021/08/15 08:23:49;;;;;;;12.20;10.80;;;;;;;;;;5052781;28;20441;-72
2021/08/15 08:26:15;;;;;;;12.63;11.33;;;;;;;;;;5052265;28;20415;-73
2021/08/15 08:28:41;;;;;;;10.77;9.90;;;;;;;;;;5052358;28;20415;-72
2021/08/15 08:31:07;;;;;;;13.03;11.40;;;;;;;;;;5053342;28;20470;-72
2021/08/15 08:33:33;;;;;;;10.67;9.60;;;;;;;;;;5055940;28;20430;-72
2021/08/15 08:39:03;;;;;;;10.53;9.43;;;;;;;;;;5056015;28;20422;-71
2021/08/15 08:41:30;;;;;;;9.60;8.70;;;;;;;;;;5056141;28;20453;-72
2021/08/15 08:43:56;;;;;;;15.77;11.27;;;;;;;;;;5056227;28;20403;-72
2021/08/15 08:46:24;;;;;;;10.73;9.83;;;;;;;;;;5056056;28;20756;-72
2021/08/15 08:48:50;;;;;;;11.00;9.57;;;;;;;;;;5055718;28;20407;-71
2021/08/15 08:54:19;;;;;;;10.47;9.57;;;;;;;;;;5055452;28;20952;-71
2021/08/15 08:56:46;;;;;;;10.80;9.80;;;;;;;;;;5055153;28;20446;-72
2021/08/15 08:59:11;;;;;;;10.93;9.93;;;;;;;;;;5055315;28;20905;-71
2021/08/15 09:01:41;;;;;;;11.33;10.23;;;;;;;;;;5055279;28;20407;-71
2021/08/15 09:09:57;;;;;;;10.70;9.70;;;;;;;;;;5055129;28;20878;-72
2021/08/15 09:13:01;;;;;;;9.70;8.60;;;;;;;;;;5054892;28;20449;-72
2021/08/15 09:15:27;;;;;;;12.27;9.47;;;;;;;;;;5023188;28;20521;-71
2021/08/15 09:17:54;;;;;;;10.47;8.73;;;;;;;;;;5053734;28;20788;-71
2021/08/15 09:20:24;;;;;;;11.23;10.17;;;;;;;;;;5055047;28;20439;-71
2021/08/15 09:22:51;;;;;;;10.20;9.20;;;;;;;;;;5054850;28;20423;-72
2021/08/15 09:25:19;;;;;;;10.13;9.27;;;;;;;;;;5054730;28;20842;-71
2021/08/15 09:27:50;;;;;;;10.93;9.83;;;;;;;;;;5054598;28;20457;-72
2021/08/15 09:30:17;;;;;;;10.47;9.47;;;;;;;;;;5054511;28;20451;-73
2021/08/15 09:33:02;;;;;;;12.80;10.10;;;;;;;;;;5054895;28;20518;-71
2021/08/15 09:35:31;;;;;;;12.73;9.73;;;;;;;;;;5054318;28;20517;-72
2021/08/15 09:38:07;;;;;;;10.80;9.70;;;;;;;;;;5054512;28;20954;-71
2021/08/15 09:40:43;;;;;;;11.47;9.80;;;;;;;;;;5053058;28;20811;-72
2021/08/15 09:43:10;;;;;;;16.60;9.53;;;;;;;;;;5053987;28;20461;-71
2021/08/15 09:45:39;;;;;;;10.07;9.23;;;;;;;;;;5054669;28;20411;-71
2021/08/15 09:48:24;;;;;;;12.13;11.13;;;;;;;;;;5053068;28;20435;-71
2021/08/15 09:51:04;;;;;;;12.43;11.23;;;;;;;;;;5054173;28;20466;-71
2021/08/15 09:53:30;;;;;;;11.47;10.37;;;;;;;;;;5053063;28;20484;-71
2021/08/15 09:55:57;;;;;;;10.60;9.60;;;;;;;;;;5053141;28;20530;-71
2021/08/15 09:58:23;;;;;;;11.87;10.43;;;;;;;;;;5054231;28;20446;-72
2021/08/15 10:00:50;;;;;;;10.60;9.60;;;;;;;;;;5052823;28;20489;-72
2021/08/15 10:03:16;;;;;;;11.57;10.40;;;;;;;;;;5054049;28;20458;-72
2021/08/15 10:05:44;;;;;;;10.83;9.53;;;;;;;;;;5054181;28;20918;-72
2021/08/15 10:08:10;;;;;;;10.30;9.30;;;;;;;;;;5052655;28;20435;-72
2021/08/15 10:10:36;;;;;;;15.80;10.07;;;;;;;;;;5053771;28;20470;-72
2021/08/15 10:13:03;;;;;;;12.60;9.63;;;;;;;;;;5053691;28;20418;-72
2021/08/15 10:15:29;;;;;;;11.23;10.20;;;;;;;;;;5053772;28;21000;-72
2021/08/15 10:17:56;;;;;;;10.77;9.60;;;;;;;;;;5053928;28;20920;-72
2021/08/15 10:20:29;;;;;;;11.13;10.03;;;;;;;;;;5052470;28;20435;-71
2021/08/15 10:23:12;;;;;;;10.40;9.37;;;;;;;;;;5052608;28;20442;-72
2021/08/15 10:25:44;;;;;;;11.20;10.17;;;;;;;;;;5053492;28;20829;-72
2021/08/15 10:28:30;;;;;;;11.87;10.87;;;;;;;;;;5052086;28;20510;-71
2021/08/15 10:30:57;;;;;;;12.97;10.33;;;;;;;;;;5053221;28;20478;-72
2021/08/15 10:33:32;;;;;;;11.10;10.10;;;;;;;;;;5053366;28;20407;-72
2021/08/15 10:36:17;;;;;;;11.00;10.00;;;;;;;;;;5053121;28;20473;-71
2021/08/15 10:38:47;;;;;;;11.20;10.20;;;;;;;;;;5053398;28;20450;-72
2021/08/15 10:41:13;;;;;;;9.90;9.10;;;;;;;;;;5053156;28;20769;-71
2021/08/15 10:43:39;;;;;;;10.43;9.43;;;;;;;;;;5053256;28;20901;-72
2021/08/15 10:46:11;;;;;;;12.20;10.43;;;;;;;;;;5051907;28;20473;-71
2021/08/15 10:48:54;;;;;;;10.13;9.13;;;;;;;;;;5053165;28;20411;-72
2021/08/15 10:51:38;;;;;;;10.67;9.77;;;;;;;;;;5053150;28;20891;-71
2021/08/15 10:54:04;;;;;;;9.63;8.83;;;;;;;;;;5049782;28;20544;-71
2021/08/15 10:56:58;;;;;;;9.47;8.67;;;;;;;;;;5050451;28;20407;-72
2021/08/15 10:59:33;;;;;;;10.43;9.50;;;;;;;;;;5036531;28;20450;-71
2021/08/15 11:02:08;;;;;;;10.53;9.53;;;;;;;;;;5052175;28;20411;-71
2021/08/15 11:04:34;;;;;;;9.93;8.50;;;;;;;;;;5050639;28;20933;-71
2021/08/15 11:07:00;;;;;;;10.40;9.40;;;;;;;;;;5052189;28;20415;-72
2021/08/15 11:09:46;;;;;;;10.43;9.47;;;;;;;;;;5051996;28;20442;-71
2021/08/15 11:12:13;;;;;;;11.27;9.50;;;;;;;;;;5050201;28;20433;-72
2021/08/15 11:14:52;;;;;;;10.20;9.20;;;;;;;;;;5051923;28;20447;-73
2021/08/15 11:17:18;;;;;;;11.93;9.80;;;;;;;;;;5051744;28;20399;-72
2021/08/15 11:23:04;;;;;;;10.83;9.73;;;;;;;;;;5051703;28;20931;-71
2021/08/15 11:25:30;;;;;;;11.07;9.17;;;;;;;;;;5050357;28;20443;-72
2021/08/15 11:27:56;;;;;;;8.70;8.00;;;;;;;;;;5051336;28;20437;-73
2021/08/15 11:30:22;;;;;;;9.03;8.23;;;;;;;;;;5051447;28;20626;-72
2021/08/15 11:32:55;;;;;;;10.30;9.10;;;;;;;;;;5051660;28;20414;-71
2021/08/15 11:38:24;;;;;;;10.47;8.67;;;;;;;;;;5051608;28;20849;-72
2021/08/15 11:40:52;;;;;;;11.47;9.63;;;;;;;;;;5051380;28;20431;-71
2021/08/15 11:43:23;;;;;;;8.03;6.70;;;;;;;;;;5051273;28;20425;-72
2021/08/15 11:45:54;;;;;;;7.47;6.87;;;;;;;;;;5051453;28;20473;-71
2021/08/15 11:48:23;;;;;;;8.60;7.70;;;;;;;;;;5051492;28;20422;-70
2021/08/15 11:53:52;;;;;;;11.07;9.30;;;;;;;;;;5049563;28;20414;-71
2021/08/15 11:56:20;;;;;;;10.20;9.30;;;;;;;;;;5052297;28;20466;-71
2021/08/15 11:58:54;;;;;;;13.13;9.60;;;;;;;;;;5052436;28;20457;-72
2021/08/15 12:01:21;;;;;;;12.23;9.03;;;;;;;;;;5052097;28;21000;-72
2021/08/15 12:04:03;;;;;;;11.30;8.20;;;;;;;;;;5052156;28;20414;-71
2021/08/15 12:09:32;;;;;;;12.27;9.17;;;;;;;;;;5055955;28;20429;-71
2021/08/15 12:11:59;;;;;;;10.37;8.80;;;;;;;;;;5054443;28;20824;-71
2021/08/15 12:14:37;;;;;;;10.43;9.53;;;;;;;;;;5056136;28;20415;-71
2021/08/15 12:17:04;;;;;;;9.23;8.33;;;;;;;;;;5056001;28;20819;-71
2021/08/15 12:19:32;;;;;;;9.87;8.47;;;;;;;;;;5055657;28;20861;-71
2021/08/15 12:25:04;;;;;;;9.20;8.33;;;;;;;;;;5055629;28;20947;-71
2021/08/15 12:27:30;;;;;;;12.80;10.53;;;;;;;;;;5053741;28;20502;-71
2021/08/15 12:29:56;;;;;;;11.93;10.73;;;;;;;;;;5054748;28;20537;-71
2021/08/15 12:32:30;;;;;;;12.57;9.90;;;;;;;;;;5055018;28;20473;-72
2021/08/15 12:34:58;;;;;;;11.17;9.70;;;;;;;;;;5054573;28;20960;-72
2021/08/15 12:40:29;;;;;;;12.23;11.00;;;;;;;;;;5054453;28;20860;-72
2021/08/15 12:42:59;;;;;;;12.13;10.53;;;;;;;;;;5054338;28;20423;-71
2021/08/15 12:45:39;;;;;;;13.70;11.50;;;;;;;;;;5054746;28;20469;-72
2021/08/15 12:48:08;;;;;;;12.97;11.63;;;;;;;;;;5054878;28;20694;-71
2021/08/15 12:50:35;;;;;;;13.60;12.13;;;;;;;;;;5054135;28;20454;-71
2021/08/15 12:53:03;;;;;;;14.60;12.40;;;;;;;;;;5054543;28;20815;-72
2021/08/15 12:55:33;;;;;;;13.83;12.60;;;;;;;;;;5054597;28;20411;-71
2021/08/15 12:58:06;;;;;;;14.00;12.67;;;;;;;;;;5054351;28;20419;-71
2021/08/15 13:00:33;;;;;;;15.40;13.90;;;;;;;;;;5054175;28;20753;-71
2021/08/15 13:03:00;;;;;;;15.73;14.07;;;;;;;;;;5054254;28;20419;-71
2021/08/15 13:05:27;;;;;;;15.50;14.03;;;;;;;;;;5054228;28;20473;-71
2021/08/15 13:10:56;;;;;;;15.00;13.53;;;;;;;;;;5053849;28;20473;-70
2021/08/15 13:13:22;;;;;;;13.03;11.80;;;;;;;;;;5053945;28;20419;-71
2021/08/15 13:15:48;;;;;;;13.43;12.23;;;;;;;;;;5054077;28;20808;-72
2021/08/15 13:18:15;;;;;;;12.37;11.20;;;;;;;;;;5053519;28;20420;-72
2021/08/15 13:20:41;;;;;;;14.17;9.20;;;;;;;;;;5053924;28;20917;-71
2021/08/15 13:26:10;;;;;;;5.70;5.10;;;;;;;;;;5053664;28;20414;-71
2021/08/15 13:28:36;;;;;;;6.57;5.67;;;;;;;;;;5053748;28;20430;-71
2021/08/15 13:31:04;;;;;;;8.47;5.87;;;;;;;;;;5053868;28;20829;-71
2021/08/15 13:33:30;;;;;;;11.03;4.80;;;;;;;;;;5053756;28;20456;-71
2021/08/15 13:35:56;;;;;;;7.63;4.80;;;;;;;;;;5051998;28;20568;-69
2021/08/15 13:38:22;;;;;;;9.53;6.70;;;;;;;;;;5053614;28;20497;-69
2021/08/15 13:40:48;;;;;;;9.70;5.50;;;;;;;;;;5053582;28;20427;-69
2021/08/15 13:43:14;;;;;;;9.33;5.80;;;;;;;;;;5053441;28;20415;-69
2021/08/15 13:45:40;;;;;;;9.83;5.00;;;;;;;;;;5052094;28;20517;-70
2021/08/15 13:48:06;;;;;;;7.70;4.83;;;;;;;;;;5053342;28;20421;-69
2021/08/15 13:50:32;;;;;;;6.73;5.23;;;;;;;;;;5053394;28;20450;-68
2021/08/15 13:56:01;;;;;;;5.47;3.50;;;;;;;;;;5054026;28;20425;-70
2021/08/15 13:58:30;;;;;;;4.07;3.77;;;;;;;;;;5053863;28;20399;-69
2021/08/15 14:00:56;;;;;;;4.50;3.40;;;;;;;;;;5054345;28;20458;-71
2021/08/15 14:03:22;;;;;;;6.50;4.30;;;;;;;;;;5054101;28;20870;-71
2021/08/15 14:05:48;;;;;;;11.33;4.70;;;;;;;;;;5054462;28;20415;-70
2021/08/15 14:11:17;;;;;;;6.17;4.80;;;;;;;;;;5053571;28;20465;-71
2021/08/15 14:13:43;;;;;;;5.67;3.97;;;;;;;;;;5053783;28;20411;-71
2021/08/15 14:16:09;;;;;;;5.13;4.63;;;;;;;;;;5050946;28;20469;-70
2021/08/15 14:18:35;;;;;;;12.53;5.27;;;;;;;;;;5053694;28;20414;-70
2021/08/15 14:21:01;;;;;;;8.00;4.70;;;;;;;;;;5053412;28;20510;-70
2021/08/15 14:26:31;;;;;;;8.27;4.90;;;;;;;;;;5052415;28;20406;-70
2021/08/15 14:28:57;;;;;;;6.50;4.57;;;;;;;;;;5052215;28;20469;-70
2021/08/15 14:31:23;;;;;;;4.60;4.07;;;;;;;;;;5053336;28;20510;-70
2021/08/15 14:33:51;;;;;;;8.63;4.87;;;;;;;;;;5053416;28;20400;-70
2021/08/15 14:36:17;;;;;;;5.87;4.50;;;;;;;;;;5053109;28;20477;-71
2021/08/15 14:41:47;;;;;;;8.03;4.77;;;;;;;;;;5052127;28;20860;-70
2021/08/15 14:44:13;;;;;;;6.00;5.50;;;;;;;;;;5052301;28;20415;-70
2021/08/15 14:46:39;;;;;;;6.03;3.83;;;;;;;;;;5052212;28;20419;-69
2021/08/15 14:49:08;;;;;;;4.50;4.10;;;;;;;;;;5052099;28;20841;-70
2021/08/15 14:51:34;;;;;;;9.73;4.60;;;;;;;;;;5050923;28;20478;-71
2021/08/15 14:57:05;;;;;;;6.40;4.60;;;;;;;;;;5050287;28;20449;-70
2021/08/15 14:59:31;;;;;;;5.90;4.03;;;;;;;;;;5052015;28;20438;-69
2021/08/15 15:01:57;;;;;;;7.00;4.50;;;;;;;;;;5051785;28;20496;-69
2021/08/15 15:04:23;;;;;;;5.47;4.87;;;;;;;;;;5051439;28;20407;-69
2021/08/15 15:06:49;;;;;;;5.80;4.67;;;;;;;;;;5051686;28;20568;-70
2021/08/15 15:09:15;;;;;;;5.27;4.77;;;;;;;;;;5051341;28;20443;-70
2021/08/15 15:11:41;;;;;;;6.13;4.83;;;;;;;;;;5050182;28;20533;-70
2021/08/15 15:14:07;;;;;;;6.33;4.70;;;;;;;;;;5051903;28;20419;-70
2021/08/15 15:16:35;;;;;;;6.53;4.83;;;;;;;;;;5051674;28;20419;-70
2021/08/15 15:19:01;;;;;;;6.57;4.27;;;;;;;;;;5051733;28;20411;-71
2021/08/15 15:21:27;;;;;;;4.80;4.30;;;;;;;;;;5051791;28;20415;-71
2021/08/15 15:26:56;;;;;;;5.43;4.40;;;;;;;;;;5051160;28;20441;-70
2021/08/15 15:29:22;;;;;;;5.40;3.60;;;;;;;;;;5050656;28;20415;-70
2021/08/15 15:31:48;;;;;;;4.67;4.27;;;;;;;;;;5050757;28;20508;-70
2021/08/15 15:34:14;;;;;;;6.43;3.97;;;;;;;;;;5051702;28;20439;-71
2021/08/15 15:36:41;;;;;;;4.40;3.97;;;;;;;;;;5051268;28;20548;-70
2021/08/15 15:42:10;;;;;;;4.83;4.03;;;;;;;;;;5051351;28;20469;-70
2021/08/15 15:44:37;;;;;;;8.33;3.83;;;;;;;;;;5051610;28;20426;-70
2021/08/15 15:47:04;;;;;;;6.33;4.07;;;;;;;;;;5051263;28;20411;-71
2021/08/15 15:49:30;;;;;;;4.43;3.87;;;;;;;;;;5051550;28;20415;-71
2021/08/15 15:51:56;;;;;;;4.60;3.73;;;;;;;;;;5051392;28;20881;-71
2021/08/15 15:57:25;;;;;;;5.57;3.50;;;;;;;;;;5051437;28;20414;-70
2021/08/15 15:59:53;;;;;;;4.63;3.70;;;;;;;;;;5051213;28;20464;-70
2021/08/15 16:02:19;;;;;;;4.53;4.13;;;;;;;;;;5051121;28;20906;-70
2021/08/15 16:04:45;;;;;;;10.03;4.07;;;;;;;;;;5051316;28;20448;-71
2021/08/15 16:07:14;;;;;;;5.07;4.40;;;;;;;;;;5051205;28;20407;-72
2021/08/15 16:12:44;;;;;;;4.43;3.70;;;;;;;;;;5051189;28;20453;-70
2021/08/15 16:15:10;;;;;;;4.57;4.17;;;;;;;;;;5051291;28;20528;-70
2021/08/15 16:17:36;;;;;;;6.73;5.20;;;;;;;;;;5050973;28;20745;-69
2021/08/15 16:20:06;;;;;;;7.23;4.40;;;;;;;;;;5051195;28;20842;-70
2021/08/15 16:22:32;;;;;;;5.27;4.87;;;;;;;;;;5051115;28;20832;-70
2021/08/15 16:24:58;;;;;;;6.77;4.20;;;;;;;;;;5051184;28;20422;-69
2021/08/15 16:27:24;;;;;;;9.50;4.70;;;;;;;;;;5051093;28;20506;-70
2021/08/15 16:29:50;;;;;;;8.00;6.07;;;;;;;;;;5050858;28;20451;-71
2021/08/15 16:32:16;;;;;;;8.20;5.83;;;;;;;;;;5050921;28;20963;-70
2021/08/15 16:34:42;;;;;;;5.93;4.63;;;;;;;;;;5050240;28;20801;-71
2021/08/15 16:37:08;;;;;;;4.90;4.47;;;;;;;;;;5051798;28;20415;-70
2021/08/15 16:42:38;;;;;;;11.83;5.47;;;;;;;;;;5051783;28;20468;-71
2021/08/15 16:45:04;;;;;;;6.90;6.00;;;;;;;;;;5051814;28;20513;-71
2021/08/15 16:47:30;;;;;;;7.23;5.80;;;;;;;;;;5052031;28;20735;-71
2021/08/15 16:49:58;;;;;;;9.23;6.10;;;;;;;;;;5051794;28;20454;-70
2021/08/15 16:52:24;;;;;;;7.37;4.90;;;;;;;;;;5053247;28;20415;-71
2021/08/15 16:57:53;;;;;;;9.43;5.50;;;;;;;;;;5055303;28;20402;-71
2021/08/15 17:00:19;;;;;;;5.20;4.80;;;;;;;;;;5055287;28;20415;-70